Terminal Aerodrome Forecast
Issued by NWS Brownsville, TX

Current Version | Previous Version | Text Only | Print | Product List | Glossary On
Versions: 1 2 3 4 5 6 7 8 9 10 11 12 13 14 15 16 17 18 19
836
FTUS44 KBRO 282339
TAFMFE
TAF
KMFE 282339Z 2900/2924 14018G25KT P6SM SCT200
     FM290400 15015KT P6SM BKN015 WS020/17050KT
      TEMPO 2904/2907 BKN020
     FM291200 18012KT P6SM FEW025
     FM291500 24010KT P6SM SKC
     FM291800 33010KT P6SM SKC=

USA.gov is the U.S. government's official web portal to all federal, state and local government web resources and services.